Messwerte Manistee

Temperatur

Temperatur
°C
1623524400 15.00 15.00 23
1623528000 16.00 16.00 24
1623531600 17.00 17.00 24
1623535200 18.00 18.00 22
1623538800 19.00 19.00 23
1623542400 20.00 20.00 22
1623546000 21.00 21.00 21
1623549600 22.00 22.00 18
1623553200 23.00 23.00 17
1623556800 0.00 0.00 17
1623560400 1.00 1.00 16
1623564000 2.00 2.00
1623567600 3.00 3.00 13
1623571200 4.00 4.00 14
1623574800 5.00 5.00 13
1623578400 6.00 6.00 12
1623582000 7.00 7.00 12
1623585600 8.00 8.00
1623589200 9.00 9.00 19
1623592800 10.00 10.00 23
1623596400 11.00 11.00 22
1623600000 12.00 12.00 23
1623603600 13.00 13.00 24
1623607200 14.00 14.00 25

Aktuellste Messwerte

Wettercharakter
Wetter: sonnig
Temperatur
25 °C
Feuchtigkeit
45 %
Wind
15 km/hWindrichtung: West
Luftdruck
1015 hPa
Messzeit: 13. Juni 2021, 15.00Datenquelle: METAR

Weitere Messstationen in der Nähe

Messstation Temperatur Entfernung
Ludington 27 °C 37 km
Frankfort 26 °C 40 km
Cadillac / Wexford County 28 °C 66 km
Traverse City 28 °C 74 km
Big Rapids 27 °C 86 km
Sturgeon Bay 28 °C 113 km
Bellaire 26 °C 115 km

Wind

Windrichtung Böen Mittelwind
° km/h km/h
1623524400 15.00 14.00 - 15.00 280° 15
1623528000 16.00 15.00 - 16.00 270° 20
1623531600 17.00 16.00 - 17.00 310° 20
1623535200 18.00 17.00 - 18.00 310° 15
1623538800 19.00 18.00 - 19.00 320° 15
1623542400 20.00 19.00 - 20.00 330° 5
1623546000 21.00 20.00 - 21.00 300° 5
1623549600 22.00 21.00 - 22.00 0
1623553200 23.00 22.00 - 23.00 340° 5
1623556800 0.00 23.00 - 0.00 0
1623560400 1.00 0.00 - 1.00 220° 5
1623564000 2.00 1.00 - 2.00
1623567600 3.00 2.00 - 3.00 0
1623571200 4.00 3.00 - 4.00 0
1623574800 5.00 4.00 - 5.00 0
1623578400 6.00 5.00 - 6.00 0
1623582000 7.00 6.00 - 7.00 0
1623585600 8.00 7.00 - 8.00
1623589200 9.00 8.00 - 9.00 290° 5
1623592800 10.00 9.00 - 10.00 310° 15
1623596400 11.00 10.00 - 11.00 300° 15
1623600000 12.00 11.00 - 12.00 330° 10
1623603600 13.00 12.00 - 13.00 300° 10
1623607200 14.00 13.00 - 14.00 290° 20

Ihre Wetterstation

Fehlt Ihre Wetterstation auf unserem Portal?

Schreiben Sie an network@meteonews.ch

Klima

Wann ist es am wärmsten? Wann regnet es am wenigsten? Unsere Klimadaten geben Auskunft.